METAR Data
IDs: Format: Raw Decoded Include TAF

Data at: 1335 UTC 10 Aug 2022

KTSP 101315Z AUTO 00000KT 10SM CLR 16/05 A3018 RMK AO2
KTSP 101255Z AUTO 00000KT 10SM CLR 15/05 A3017 RMK AO2
KTSP 101235Z AUTO 00000KT 10SM CLR 16/06 A3016 RMK AO2
KTSP 101215Z AUTO 00000KT 10SM CLR 17/05 A3016 RMK AO2
KTSP 101155Z AUTO 00000KT 10SM CLR 18/05 A3016 RMK AO2
KTSP 101135Z AUTO 00000KT 10SM CLR 17/06 A3016 RMK AO2
KTSP 101115Z AUTO 00000KT 10SM CLR 17/06 A3016 RMK AO2
KTSP 101055Z AUTO 00000KT 10SM CLR 17/06 A3016 RMK AO2
KTSP 101035Z AUTO 00000KT 10SM CLR 18/07 A3016 RMK AO2
KTSP 100955Z AUTO 00000KT 9SM CLR 19/08 A3016 RMK AO2
KTSP 100935Z AUTO 00000KT 10SM CLR 19/09 A3016 RMK AO2
KTSP 100915Z AUTO 25005KT 10SM CLR 19/07 A3016 RMK AO2
KTSP 100855Z AUTO 26004KT 10SM CLR 19/07 A3016 RMK AO2
KTSP 100835Z AUTO 28006KT 10SM CLR 19/07 A3016 RMK AO2
KTSP 100815Z AUTO 27006KT 10SM CLR 20/08 A3016 RMK AO2
KTSP 100755Z AUTO 27005KT 10SM CLR 20/08 A3016 RMK AO2
KTSP 100735Z AUTO 27006KT 10SM CLR 21/09 A3017 RMK AO2
KTSP 100715Z AUTO 28007KT 10SM CLR 21/08 A3017 RMK AO2
KTSP 100655Z AUTO 27007KT 10SM CLR 21/08 A3017 RMK AO2
KTSP 100635Z AUTO 30005KT 10SM CLR 21/09 A3017 RMK AO2
KTSP 100615Z AUTO 28006KT 9SM CLR 22/09 A3016 RMK AO2
KTSP 100555Z AUTO 29007KT 10SM CLR 22/08 A3016 RMK AO2
KTSP 100535Z AUTO 29007KT 10SM CLR 22/08 A3016 RMK AO2
KTSP 100515Z AUTO 27006KT 9SM CLR 22/09 A3016 RMK AO2
KTSP 100455Z AUTO 26007KT 9SM CLR 22/09 A3016 RMK AO2
KTSP 100435Z AUTO 28006KT 9SM CLR 22/09 A3015 RMK AO2
KTSP 100415Z AUTO 27007KT 10SM CLR 23/09 A3015 RMK AO2
KTSP 100355Z AUTO 28007KT 9SM CLR 23/09 A3013 RMK AO2
KTSP 100335Z AUTO 28007KT 9SM CLR 23/09 A3012 RMK AO2
KTSP 100315Z AUTO 27009KT 10SM CLR 24/08 A3012 RMK AO2
KTSP 100255Z AUTO 28009KT 9SM CLR 25/07 A3011 RMK AO2
KTSP 100235Z AUTO 31011KT 10SM CLR 26/06 A3011 RMK AO2
KTSP 100215Z AUTO 31012KT 10SM CLR 26/06 A3010 RMK AO2
KTSP 100155Z AUTO 31012G17KT 9SM CLR 27/06 A3010 RMK AO2
KTSP 100135Z AUTO 32015KT 9SM CLR 27/06 A3009 RMK AO2
KTSP 100115Z AUTO 32014G19KT 10SM CLR 28/06 A3009 RMK AO2
KTSP 100055Z AUTO 31013G19KT 9SM CLR 28/05 A3009 RMK AO2
KTSP 100035Z AUTO 30014KT 9SM CLR 29/05 A3008 RMK AO2
KTSP 100015Z AUTO 32012G17KT 9SM CLR 30/05 A3008 RMK AO2
KTSP 092355Z AUTO 33013KT 10SM CLR 30/06 A3008 RMK AO2
KTSP 092335Z AUTO 31013G18KT 9SM CLR 30/06 A3008 RMK AO2
KTSP 092315Z AUTO 32014KT 9SM CLR 30/05 A3009 RMK AO2
KTSP 092255Z AUTO 32013G19KT 8SM CLR 30/07 A3009 RMK AO2
KTSP 092235Z AUTO 31014KT 9SM CLR 30/06 A3009 RMK AO2
KTSP 092215Z AUTO 32014KT 9SM CLR 30/07 A3010 RMK AO2
KTSP 092155Z AUTO 32015KT 8SM CLR 29/08 A3010 RMK AO2
KTSP 092135Z AUTO 31014G20KT 9SM CLR 30/09 A3010 RMK AO2
KTSP 092115Z AUTO 31016KT 8SM CLR 30/09 A3011 RMK AO2
KTSP 092055Z AUTO 32015KT 9SM CLR 31/09 A3011 RMK AO2
KTSP 092035Z AUTO 32014KT 9SM 30/08 A3011 RMK AO2
KTSP 092015Z AUTO 32016KT 10SM 29/09 A3012 RMK AO2
KTSP 091555Z AUTO 00000KT 9SM CLR 24/10 A3014 RMK AO2
KTSP 091535Z AUTO 00000KT 9SM CLR 23/11 A3013 RMK AO2
KTSP 091515Z AUTO 00000KT 9SM CLR 22/10 A3013 RMK AO2
KTSP 091455Z AUTO 00000KT 9SM CLR 22/10 A3013 RMK AO2
KTSP 091435Z AUTO 00000KT 9SM CLR 21/10 A3012 RMK AO2
KTSP 091415Z AUTO 00000KT 9SM CLR 20/11 A3012 RMK AO2
KTSP 091355Z AUTO 00000KT 9SM CLR 19/11 A3013 RMK AO2
KTSP 091335Z AUTO 00000KT 9SM CLR 18/10 A3012 RMK AO2
KTSP 091315Z AUTO 13004KT 10SM CLR 18/11 A3012 RMK AO2
KTSP 091255Z AUTO 13004KT 10SM CLR 18/11 A3011 RMK AO2
KTSP 091215Z AUTO 00000KT 10SM CLR 18/11 A3011 RMK AO2
KTSP 091155Z AUTO 00000KT 10SM CLR 18/11 A3011 RMK AO2
KTSP 091135Z AUTO 00000KT 10SM CLR 17/11 A3011 RMK AO2
KTSP 091115Z AUTO 00000KT 10SM CLR 17/10 A3011 RMK AO2
KTSP 091055Z AUTO 00000KT 10SM CLR 17/10 A3011 RMK AO2
KTSP 091035Z AUTO 00000KT 9SM CLR 17/11 A3011 RMK AO2
KTSP 091015Z AUTO 00000KT 10SM CLR 17/11 A3011 RMK AO2
KTSP 090955Z AUTO 00000KT 10SM CLR 18/10 A3011 RMK AO2
KTSP 090935Z AUTO 00000KT 10SM CLR 17/10 A3011 RMK AO2
KTSP 090915Z AUTO 00000KT 10SM CLR 17/10 A3011 RMK AO2
KTSP 090855Z AUTO 00000KT 10SM CLR 18/10 A3011 RMK AO2
KTSP 090835Z AUTO 12003KT 10SM CLR 18/10 A3012 RMK AO2
KTSP 090815Z AUTO 00000KT 10SM CLR 19/11 A3012 RMK AO2
KTSP 090755Z AUTO 00000KT 9SM CLR 19/11 A3013 RMK AO2
KTSP 090735Z AUTO 00000KT 9SM CLR 20/11 A3013 RMK AO2
KTSP 090715Z AUTO 00000KT 10SM CLR 19/11 A3014 RMK AO2
KTSP 090655Z AUTO 00000KT 10SM CLR 20/10 A3013 RMK AO2
KTSP 090635Z AUTO 00000KT 10SM CLR 21/10 A3013 RMK AO2
KTSP 090615Z AUTO 00000KT 9SM CLR 21/10 A3013 RMK AO2
KTSP 090555Z AUTO 00000KT 9SM CLR 21/10 A3014 RMK AO2
KTSP 090535Z AUTO 28004KT 9SM FEW120 22/10 A3013 RMK AO2
KTSP 090515Z AUTO 28004KT 10SM FEW120 22/10 A3014 RMK AO2
KTSP 090455Z AUTO 31004KT 10SM FEW110 22/10 A3014 RMK AO2
KTSP 090435Z AUTO 00000KT 9SM CLR 22/10 A3014 RMK AO2
KTSP 090415Z AUTO 33006KT 9SM CLR 23/11 A3013 RMK AO2
KTSP 090355Z AUTO 32006KT 9SM CLR 23/10 A3012 RMK AO2
KTSP 090335Z AUTO 30006KT 9SM FEW110 23/10 A3012 RMK AO2
KTSP 090315Z AUTO 30006KT 10SM CLR 24/10 A3012 RMK AO2
KTSP 090255Z AUTO 31010KT 9SM CLR 24/10 A3011 RMK AO2
KTSP 090235Z AUTO 31011KT 9SM CLR 25/10 A3010 RMK AO2
KTSP 090215Z AUTO 31012KT 9SM CLR 26/10 A3009 RMK AO2
KTSP 090155Z AUTO 32012KT 9SM CLR 26/10 A3009 RMK AO2